createdAt,value
2022-07-29T00:00:45.500Z,17.14
2022-07-29T00:03:18.367Z,17.26
2022-07-29T00:05:53.007Z,17.12
2022-07-29T00:08:25.663Z,17.29
2022-07-29T00:10:58.343Z,17.45
2022-07-29T00:13:32.278Z,17.44
2022-07-29T00:16:05.686Z,17.40
2022-07-29T00:18:38.293Z,17.34
2022-07-29T00:21:10.985Z,17.16
2022-07-29T00:23:43.746Z,17.21
2022-07-29T00:26:16.247Z,17.04
2022-07-29T00:28:48.724Z,17.15
2022-07-29T00:31:21.519Z,17.16
2022-07-29T00:33:55.373Z,16.72
2022-07-29T00:36:28.161Z,17.13
2022-07-29T00:39:01.918Z,16.85
2022-07-29T00:41:34.579Z,17.06
2022-07-29T00:44:07.348Z,16.50
2022-07-29T00:46:39.981Z,16.50
2022-07-29T00:49:12.740Z,16.56
2022-07-29T00:51:45.490Z,15.95
2022-07-29T00:54:19.338Z,15.03
2022-07-29T00:56:52.186Z,14.53
2022-07-29T00:59:24.645Z,13.74
2022-07-29T01:02:07.586Z,14.29
2022-07-29T01:04:41.319Z,14.33
2022-07-29T01:07:14.195Z,14.34
2022-07-29T01:09:47.966Z,14.08
2022-07-29T01:12:25.070Z,14.27
2022-07-29T01:14:57.553Z,14.11
2022-07-29T01:17:37.979Z,14.30
2022-07-29T01:20:22.607Z,14.24
2022-07-29T01:23:38.338Z,14.03
2022-07-29T01:26:13.788Z,13.97
2022-07-29T01:28:47.859Z,14.12
2022-07-29T01:31:29.132Z,13.72
2022-07-29T01:34:07.623Z,13.86
2022-07-29T01:36:51.262Z,13.54
2022-07-29T01:39:51.325Z,13.68
2022-07-29T01:42:46.126Z,13.85
2022-07-29T01:45:31.609Z,13.41
2022-07-29T01:48:11.304Z,13.57
2022-07-29T01:50:51.661Z,13.52
2022-07-29T01:53:38.010Z,13.47
2022-07-29T01:56:12.958Z,13.45
2022-07-29T01:58:46.958Z,13.30
2022-07-29T02:01:21.320Z,13.57
2022-07-29T02:03:55.202Z,13.52
2022-07-29T02:06:30.858Z,13.54
2022-07-29T02:09:03.730Z,13.44
2022-07-29T02:11:38.684Z,13.72
2022-07-29T02:14:14.174Z,13.73
2022-07-29T02:16:50.584Z,13.47
2022-07-29T02:19:27.612Z,13.48
2022-07-29T02:22:02.269Z,13.47
2022-07-29T02:24:38.536Z,13.28
2022-07-29T02:27:12.917Z,13.70
2022-07-29T02:29:46.569Z,13.69
2022-07-29T02:32:22.343Z,13.63
2022-07-29T02:34:55.941Z,13.76
2022-07-29T02:37:30.165Z,13.58
2022-07-29T02:40:03.974Z,13.51
2022-07-29T02:42:37.491Z,13.63
2022-07-29T02:45:11.046Z,13.70
2022-07-29T02:47:50.590Z,13.50
2022-07-29T02:50:35.601Z,13.63
2022-07-29T02:53:17.861Z,13.52
2022-07-29T02:55:57.647Z,13.38
2022-07-29T02:58:33.378Z,13.57
2022-07-29T03:01:19.371Z,13.48
2022-07-29T03:03:55.032Z,13.49
2022-07-29T03:06:38.162Z,13.73
2022-07-29T03:09:13.796Z,13.76
2022-07-29T03:11:50.412Z,13.64
2022-07-29T03:14:39.347Z,13.19
2022-07-29T03:17:35.225Z,13.17
2022-07-29T03:20:09.480Z,13.26
2022-07-29T03:22:48.154Z,13.12
2022-07-29T03:25:21.586Z,13.48
2022-07-29T03:27:54.257Z,13.65
2022-07-29T03:30:26.830Z,13.54
2022-07-29T03:32:59.863Z,13.67
2022-07-29T03:35:32.833Z,13.69
2022-07-29T03:38:05.722Z,13.69
2022-07-29T03:40:47.483Z,13.54
2022-07-29T03:43:22.881Z,13.70
2022-07-29T03:45:56.269Z,13.42
2022-07-29T03:48:31.683Z,13.62
2022-07-29T03:51:04.294Z,13.46
2022-07-29T03:53:37.688Z,13.55
2022-07-29T03:56:11.279Z,13.56
2022-07-29T03:58:45.308Z,13.54
2022-07-29T04:01:18.965Z,13.62
2022-07-29T04:03:52.091Z,13.25
2022-07-29T04:06:26.838Z,13.62
2022-07-29T04:08:59.443Z,13.36
2022-07-29T04:11:32.121Z,13.25
2022-07-29T04:14:04.848Z,13.64
2022-07-29T04:16:37.342Z,13.37
2022-07-29T04:19:09.739Z,13.45
2022-07-29T04:21:42.988Z,13.37
2022-07-29T04:24:15.990Z,13.38
2022-07-29T04:26:49.283Z,13.50
2022-07-29T04:29:21.799Z,13.42
2022-07-29T04:31:54.460Z,13.37
2022-07-29T04:34:28.267Z,13.25
2022-07-29T04:37:00.905Z,13.33
2022-07-29T04:39:33.483Z,13.39
2022-07-29T04:42:06.288Z,13.19
2022-07-29T04:44:43.064Z,13.36
2022-07-29T04:47:16.031Z,13.13
2022-07-29T04:49:48.698Z,12.98
2022-07-29T04:52:21.180Z,13.44
2022-07-29T04:54:53.608Z,13.29
2022-07-29T04:57:26.098Z,13.55
2022-07-29T04:59:58.749Z,13.62
2022-07-29T05:02:31.270Z,13.28
2022-07-29T05:05:04.112Z,13.64
2022-07-29T05:07:36.729Z,13.67
2022-07-29T05:10:09.835Z,13.67
2022-07-29T05:12:43.335Z,13.62
2022-07-29T05:15:15.893Z,13.79
2022-07-29T05:17:48.532Z,13.70
2022-07-29T05:20:27.067Z,13.54
2022-07-29T05:23:01.003Z,13.75
2022-07-29T05:25:43.808Z,13.82
2022-07-29T05:28:17.688Z,13.39
2022-07-29T05:30:50.494Z,13.58
2022-07-29T05:33:35.124Z,13.48
2022-07-29T05:36:09.380Z,13.76
2022-07-29T05:38:41.877Z,13.57
2022-07-29T05:41:14.442Z,13.15
2022-07-29T05:43:46.942Z,13.68
2022-07-29T05:46:19.476Z,13.59
2022-07-29T05:48:52.029Z,13.33
2022-07-29T05:51:24.506Z,13.52
2022-07-29T05:54:03.047Z,13.52
2022-07-29T05:56:37.226Z,13.51
2022-07-29T05:59:17.896Z,13.55
2022-07-29T06:01:50.919Z,13.22
2022-07-29T06:04:23.804Z,13.59
2022-07-29T06:06:56.342Z,13.63
2022-07-29T06:09:29.509Z,13.58
2022-07-29T06:12:02.625Z,13.71
2022-07-29T06:14:36.744Z,13.62
2022-07-29T06:17:09.705Z,13.70
2022-07-29T06:19:42.860Z,13.68
2022-07-29T06:22:17.717Z,13.74
2022-07-29T06:24:52.808Z,13.85
2022-07-29T06:27:25.730Z,14.24
2022-07-29T06:29:58.440Z,14.39
2022-07-29T06:32:32.172Z,14.47
2022-07-29T06:35:32.915Z,14.61
2022-07-29T06:37:59.495Z,14.58
2022-07-29T06:40:51.094Z,14.49
2022-07-29T06:43:24.102Z,14.46
2022-07-29T06:46:03.886Z,14.35
2022-07-29T06:48:39.392Z,14.33
2022-07-29T06:51:12.711Z,14.49
2022-07-29T06:53:59.591Z,14.40
2022-07-29T06:56:40.287Z,14.56
2022-07-29T06:59:13.682Z,14.59
2022-07-29T07:01:46.492Z,14.66
2022-07-29T07:04:19.838Z,14.67
2022-07-29T07:06:52.773Z,14.50
2022-07-29T07:09:25.468Z,14.60
2022-07-29T07:12:12.789Z,14.95
2022-07-29T07:14:46.158Z,15.15
2022-07-29T07:17:18.734Z,15.00
2022-07-29T07:19:51.199Z,15.22
2022-07-29T07:22:23.721Z,14.96
2022-07-29T07:24:56.261Z,15.17
2022-07-29T07:27:29.431Z,15.43
2022-07-29T07:30:03.048Z,15.66
2022-07-29T07:32:36.314Z,15.83
2022-07-29T07:35:10.382Z,16.63
2022-07-29T07:37:42.831Z,17.56
2022-07-29T07:40:18.521Z,18.04
2022-07-29T07:42:51.713Z,18.49
2022-07-29T07:45:33.692Z,19.11
2022-07-29T07:48:06.342Z,19.49
2022-07-29T07:50:39.001Z,18.92
2022-07-29T07:53:12.144Z,19.58
2022-07-29T07:56:09.330Z,19.93
2022-07-29T07:58:37.757Z,20.00
2022-07-29T08:01:10.732Z,20.00
2022-07-29T08:03:43.188Z,20.62
2022-07-29T08:06:16.000Z,20.52
2022-07-29T08:08:48.460Z,20.73
2022-07-29T08:11:23.702Z,20.82
2022-07-29T08:13:59.538Z,21.14
2022-07-29T08:16:31.960Z,21.26
2022-07-29T08:19:04.436Z,21.46
2022-07-29T08:21:37.366Z,21.53
2022-07-29T08:24:29.630Z,21.64
2022-07-29T08:27:02.284Z,21.83
2022-07-29T08:29:35.064Z,21.80
2022-07-29T08:32:11.878Z,22.18
2022-07-29T08:34:47.351Z,22.30
2022-07-29T08:37:19.859Z,22.57
2022-07-29T08:39:52.337Z,23.40
2022-07-29T08:42:25.226Z,23.64
2022-07-29T08:44:58.738Z,23.81
2022-07-29T08:47:31.844Z,23.78
2022-07-29T08:50:04.731Z,24.32
2022-07-29T08:52:40.018Z,24.52
2022-07-29T08:55:13.800Z,25.18
2022-07-29T08:57:51.104Z,25.44
2022-07-29T09:00:28.329Z,25.34
2022-07-29T09:03:01.271Z,26.14
2022-07-29T09:05:39.498Z,25.87
2022-07-29T09:08:14.726Z,26.31
2022-07-29T09:10:47.921Z,26.09
2022-07-29T09:13:20.892Z,25.82
2022-07-29T09:15:55.876Z,26.53
2022-07-29T09:18:44.378Z,26.13
2022-07-29T09:21:36.797Z,26.57
2022-07-29T09:24:14.791Z,27.40
2022-07-29T09:26:47.580Z,27.02
2022-07-29T09:29:26.059Z,26.99
2022-07-29T09:32:03.590Z,26.48
2022-07-29T09:34:36.333Z,26.93
2022-07-29T09:37:09.961Z,26.87
2022-07-29T09:39:48.453Z,27.32
2022-07-29T09:42:40.325Z,28.15
2022-07-29T09:45:26.699Z,27.74
2022-07-29T09:48:04.129Z,28.56
2022-07-29T09:50:38.170Z,28.54
2022-07-29T09:53:32.172Z,28.29
2022-07-29T09:56:10.883Z,28.15
2022-07-29T09:58:46.578Z,28.73
2022-07-29T10:01:38.452Z,29.43
2022-07-29T10:04:21.085Z,28.69
2022-07-29T10:07:04.874Z,27.96
2022-07-29T10:10:10.907Z,28.25
2022-07-29T10:12:54.540Z,28.71
2022-07-29T10:15:30.027Z,29.34
2022-07-29T10:18:13.403Z,29.07
2022-07-29T10:21:35.405Z,28.44
2022-07-29T10:24:15.109Z,29.05
2022-07-29T10:26:57.239Z,29.35
2022-07-29T10:32:54.213Z,30.62
2022-07-29T10:39:09.932Z,30.52
2022-07-29T10:42:35.540Z,29.70
2022-07-29T10:45:11.325Z,29.51
2022-07-29T10:48:15.141Z,29.99
2022-07-29T10:51:21.175Z,30.01
2022-07-29T11:01:37.714Z,30.52
2022-07-29T11:04:51.853Z,30.85
2022-07-29T11:07:45.959Z,30.28
2022-07-29T11:13:11.503Z,31.03
2022-07-29T11:16:21.699Z,32.50
2022-07-29T11:19:32.107Z,32.54
2022-07-29T11:22:21.526Z,31.48
2022-07-29T11:25:50.341Z,32.23
2022-07-29T11:28:30.057Z,31.70
2022-07-29T11:31:14.010Z,31.64
2022-07-29T11:34:27.964Z,32.30
2022-07-29T11:37:20.071Z,32.61
2022-07-29T11:40:23.982Z,32.29
2022-07-29T11:43:15.882Z,31.34
2022-07-29T11:46:06.219Z,31.96
2022-07-29T11:49:18.074Z,31.67
2022-07-29T11:52:17.867Z,31.57
2022-07-29T11:55:10.436Z,30.68
2022-07-29T11:59:45.930Z,32.16
2022-07-29T12:02:37.200Z,32.99
2022-07-29T12:05:22.185Z,32.17
2022-07-29T12:08:31.966Z,33.13
2022-07-29T12:11:47.497Z,32.58
2022-07-29T12:14:39.995Z,34.17
2022-07-29T12:17:36.024Z,33.51
2022-07-29T12:20:21.796Z,34.00
2022-07-29T12:23:06.440Z,33.39
2022-07-29T12:25:54.637Z,32.57
2022-07-29T12:28:50.186Z,32.66
2022-07-29T12:31:42.783Z,31.52
2022-07-29T12:37:20.792Z,33.13
2022-07-29T12:49:52.858Z,31.13
2022-07-29T12:52:36.114Z,32.88
2022-07-29T12:54:12.250Z,33.19
2022-07-29T12:55:20.431Z,32.91
2022-07-29T12:57:58.743Z,32.51
2022-07-29T13:04:30.935Z,32.87
2022-07-29T13:07:14.712Z,32.50
2022-07-29T13:09:48.568Z,32.89
2022-07-29T13:12:40.368Z,33.34
2022-07-29T13:15:15.775Z,33.07
2022-07-29T13:18:04.395Z,33.31
